createdAt,value
2022-12-04T00:02:12.363Z,39.60
2022-12-04T00:04:38.576Z,37.53
2022-12-04T00:07:04.895Z,40.23
2022-12-04T00:09:31.051Z,37.27
2022-12-04T00:11:58.424Z,37.23
2022-12-04T00:14:24.727Z,37.40
2022-12-04T00:16:50.939Z,44.43
2022-12-04T00:19:17.153Z,38.27
2022-12-04T00:21:44.402Z,37.90
2022-12-04T00:24:10.557Z,36.10
2022-12-04T00:26:36.774Z,36.90
2022-12-04T00:29:03.657Z,33.13
2022-12-04T00:31:30.947Z,42.10
2022-12-04T00:33:58.484Z,40.67
2022-12-04T00:36:26.563Z,38.17
2022-12-04T00:38:53.200Z,40.53
2022-12-04T00:41:21.840Z,39.53
2022-12-04T00:43:48.011Z,37.97
2022-12-04T00:46:15.346Z,42.67
2022-12-04T00:48:41.870Z,34.33
2022-12-04T00:51:10.799Z,41.30
2022-12-04T00:53:37.402Z,35.53
2022-12-04T00:56:04.505Z,36.50
2022-12-04T00:58:30.807Z,37.33
2022-12-04T01:01:01.866Z,34.50
2022-12-04T01:03:29.061Z,44.20
2022-12-04T01:05:55.270Z,38.03
2022-12-04T01:08:21.440Z,45.00
2022-12-04T01:10:47.576Z,37.00
2022-12-04T01:13:13.784Z,39.20
2022-12-04T01:15:41.737Z,38.83
2022-12-04T01:18:07.938Z,41.00
2022-12-04T01:20:34.839Z,38.67
2022-12-04T01:23:01.093Z,38.10
2022-12-04T01:25:27.388Z,36.73
2022-12-04T01:27:53.500Z,39.30
2022-12-04T01:30:19.746Z,39.57
2022-12-04T01:32:45.884Z,41.40
2022-12-04T01:35:12.173Z,38.77
2022-12-04T01:37:39.063Z,39.90
2022-12-04T01:40:06.804Z,38.97
2022-12-04T01:42:33.023Z,39.10
2022-12-04T01:45:28.476Z,38.27
2022-12-04T01:47:57.696Z,33.83
2022-12-04T01:50:24.172Z,43.07
2022-12-04T01:52:51.014Z,41.33
2022-12-04T01:55:18.291Z,44.97
2022-12-04T01:57:45.278Z,39.97
2022-12-04T02:00:13.958Z,39.87
2022-12-04T02:02:41.886Z,39.27
2022-12-04T02:05:12.019Z,40.43
2022-12-04T02:07:38.709Z,41.40
2022-12-04T02:10:08.052Z,39.10
2022-12-04T02:12:38.670Z,38.30
2022-12-04T02:15:08.912Z,41.97
2022-12-04T02:17:39.464Z,41.33
2022-12-04T02:20:13.687Z,40.07
2022-12-04T02:22:54.450Z,41.93
2022-12-04T02:25:25.031Z,37.83
2022-12-04T02:28:08.369Z,39.70
2022-12-04T02:30:38.983Z,40.87
2022-12-04T02:33:08.908Z,40.37
2022-12-04T02:35:38.007Z,42.83
2022-12-04T02:38:10.407Z,37.60
2022-12-04T02:40:41.510Z,37.73
2022-12-04T02:43:11.396Z,41.20
2022-12-04T02:45:40.780Z,39.97
2022-12-04T02:48:08.088Z,41.40
2022-12-04T02:50:37.492Z,38.60
2022-12-04T02:53:07.295Z,37.77
2022-12-04T02:55:36.704Z,37.93
2022-12-04T02:58:07.203Z,37.50
2022-12-04T03:00:34.346Z,38.77
2022-12-04T03:03:05.252Z,40.47
2022-12-04T03:05:36.345Z,38.93
2022-12-04T03:08:04.992Z,35.27
2022-12-04T03:10:34.842Z,40.83
2022-12-04T03:13:04.968Z,38.90
2022-12-04T03:15:34.675Z,39.27
2022-12-04T03:18:04.022Z,42.37
2022-12-04T03:20:32.671Z,34.73
2022-12-04T03:23:02.619Z,43.60
2022-12-04T03:25:32.987Z,38.50
2022-12-04T03:28:01.587Z,40.47
2022-12-04T03:30:31.637Z,35.90
2022-12-04T03:33:03.077Z,39.07
2022-12-04T03:35:33.126Z,38.37
2022-12-04T03:38:02.932Z,40.90
2022-12-04T03:40:35.198Z,40.00
2022-12-04T03:43:04.121Z,38.60
2022-12-04T03:45:38.641Z,39.50
2022-12-04T03:48:07.611Z,39.27
2022-12-04T03:50:35.747Z,38.07
2022-12-04T03:53:06.774Z,40.37
2022-12-04T03:55:36.339Z,41.77
2022-12-04T03:58:06.421Z,43.10
2022-12-04T04:00:33.294Z,40.13
2022-12-04T04:03:03.585Z,37.63
2022-12-04T04:05:31.170Z,41.80
2022-12-04T04:08:18.986Z,38.50
2022-12-04T04:10:45.278Z,37.17
2022-12-04T04:13:36.016Z,42.07
2022-12-04T04:16:22.684Z,40.63
2022-12-04T04:19:12.179Z,39.27
2022-12-04T04:21:58.161Z,35.20
2022-12-04T04:24:27.644Z,40.47
2022-12-04T04:26:54.838Z,38.37
2022-12-04T04:29:20.992Z,38.17
2022-12-04T04:31:51.582Z,37.33
2022-12-04T04:34:20.066Z,40.97
2022-12-04T04:36:54.627Z,35.87
2022-12-04T04:39:25.181Z,36.67
2022-12-04T04:41:55.532Z,36.53
2022-12-04T04:44:26.071Z,39.43
2022-12-04T04:46:55.485Z,40.67
2022-12-04T04:49:23.385Z,35.30
2022-12-04T04:51:50.245Z,39.10
2022-12-04T04:54:16.771Z,34.43
2022-12-04T04:56:44.398Z,34.47
2022-12-04T04:59:10.731Z,36.57
2022-12-04T05:01:38.216Z,38.60
2022-12-04T05:04:05.051Z,35.27
2022-12-04T05:06:31.480Z,37.53
2022-12-04T05:08:58.239Z,29.17
2022-12-04T05:11:24.548Z,36.00
2022-12-04T05:13:50.727Z,31.93
2022-12-04T05:16:16.958Z,34.30
2022-12-04T05:19:04.040Z,35.40
2022-12-04T05:21:30.020Z,33.53
2022-12-04T05:23:56.255Z,35.60
2022-12-04T05:26:23.259Z,32.57
2022-12-04T05:28:49.404Z,33.97
2022-12-04T05:31:15.591Z,30.77
2022-12-04T05:33:41.883Z,29.67
2022-12-04T05:36:09.898Z,32.40
2022-12-04T05:38:36.724Z,30.80
2022-12-04T05:41:04.775Z,29.27
2022-12-04T05:43:31.744Z,30.53
2022-12-04T05:46:00.281Z,37.47
2022-12-04T05:48:26.451Z,27.93
2022-12-04T05:50:52.594Z,28.77
2022-12-04T05:53:18.730Z,28.97
2022-12-04T05:55:44.950Z,30.57
2022-12-04T05:58:11.051Z,31.57
2022-12-04T06:00:37.831Z,31.00
2022-12-04T06:03:04.020Z,30.40
2022-12-04T06:05:31.948Z,28.47
2022-12-04T06:07:58.286Z,28.90
2022-12-04T06:10:24.383Z,27.40
2022-12-04T06:12:50.527Z,30.90
2022-12-04T06:15:16.706Z,30.00
2022-12-04T06:17:43.509Z,28.37
2022-12-04T06:20:12.007Z,27.80
2022-12-04T06:22:38.290Z,31.33
2022-12-04T06:25:05.098Z,27.00
2022-12-04T06:27:31.257Z,30.33
2022-12-04T06:29:57.644Z,32.67
2022-12-04T06:32:24.502Z,31.73
2022-12-04T06:34:52.203Z,26.80
2022-12-04T06:37:18.704Z,27.70
2022-12-04T06:39:45.028Z,29.57
2022-12-04T06:42:11.166Z,23.63
2022-12-04T06:44:37.298Z,25.37
2022-12-04T06:47:04.407Z,34.10
2022-12-04T06:49:30.557Z,29.97
2022-12-04T06:51:57.293Z,27.97
2022-12-04T06:54:23.445Z,29.60
2022-12-04T06:56:49.650Z,26.27
2022-12-04T06:59:15.788Z,29.60
2022-12-04T07:01:42.092Z,24.13
2022-12-04T07:04:08.374Z,20.70
2022-12-04T07:06:36.401Z,22.97
2022-12-04T07:09:06.007Z,23.40
2022-12-04T07:11:32.862Z,20.73
2022-12-04T07:13:59.072Z,22.53
2022-12-04T07:16:26.818Z,19.53
2022-12-04T07:18:53.734Z,21.50
2022-12-04T07:21:21.482Z,18.73
2022-12-04T07:23:49.793Z,16.63
2022-12-04T07:26:16.915Z,17.07
2022-12-04T07:28:44.408Z,20.57
2022-12-04T07:31:12.000Z,20.97
2022-12-04T07:33:38.314Z,15.50
2022-12-04T07:36:06.935Z,15.97
2022-12-04T07:38:34.051Z,15.83
2022-12-04T07:41:00.847Z,17.60
2022-12-04T07:43:28.739Z,31.77
2022-12-04T07:45:55.103Z,31.03
2022-12-04T07:48:21.276Z,17.57
2022-12-04T07:50:47.901Z,12.47
2022-12-04T07:53:14.065Z,14.93
2022-12-04T07:55:40.382Z,13.70
2022-12-04T07:58:06.546Z,13.83
2022-12-04T08:00:33.420Z,11.50
2022-12-04T08:02:59.598Z,16.63
2022-12-04T08:05:26.351Z,15.70
2022-12-04T08:07:52.605Z,15.47
2022-12-04T08:10:18.890Z,12.63
2022-12-04T08:12:45.015Z,17.03
2022-12-04T08:15:11.156Z,15.97
2022-12-04T08:17:37.909Z,14.83
2022-12-04T08:20:05.278Z,13.23
2022-12-04T08:22:31.633Z,13.53
2022-12-04T08:24:57.778Z,13.13
2022-12-04T08:27:23.943Z,17.47
2022-12-04T08:29:50.108Z,14.17
2022-12-04T08:32:16.228Z,15.07
2022-12-04T08:34:42.980Z,15.50
2022-12-04T08:37:09.128Z,16.03
2022-12-04T08:39:35.296Z,17.70
2022-12-04T08:42:01.533Z,14.27
2022-12-04T08:44:27.684Z,18.20
2022-12-04T08:46:53.818Z,12.57
2022-12-04T08:49:19.973Z,18.43
2022-12-04T08:51:46.751Z,13.20
2022-12-04T08:54:13.271Z,12.47
2022-12-04T08:56:39.464Z,14.20
2022-12-04T08:59:05.661Z,15.47
2022-12-04T09:01:31.950Z,13.73
2022-12-04T09:03:58.335Z,12.50
2022-12-04T09:06:24.600Z,13.63
2022-12-04T09:08:53.578Z,14.13
2022-12-04T09:11:21.379Z,12.87
2022-12-04T09:13:47.858Z,12.50
2022-12-04T09:16:15.684Z,14.80
2022-12-04T09:18:42.220Z,14.10
2022-12-04T09:21:10.753Z,13.30
2022-12-04T09:23:37.549Z,13.47
2022-12-04T09:26:06.308Z,13.10
2022-12-04T09:28:32.499Z,13.90
2022-12-04T09:30:59.521Z,13.90
2022-12-04T09:33:25.870Z,15.27
2022-12-04T09:35:52.047Z,12.57
2022-12-04T09:38:18.232Z,13.37
2022-12-04T09:40:49.736Z,14.27
2022-12-04T09:43:26.201Z,13.13
2022-12-04T09:45:55.388Z,15.10
2022-12-04T09:48:22.176Z,14.33
2022-12-04T09:50:49.328Z,14.93
2022-12-04T09:53:19.171Z,14.37
2022-12-04T09:55:50.883Z,14.50
2022-12-04T09:58:21.541Z,12.97
2022-12-04T10:00:51.203Z,13.73
2022-12-04T10:03:19.488Z,12.20
2022-12-04T10:05:52.091Z,12.03
2022-12-04T10:08:21.088Z,13.57
2022-12-04T10:10:54.668Z,15.00
2022-12-04T10:13:34.732Z,16.80
2022-12-04T10:16:06.930Z,15.83
2022-12-04T10:18:44.067Z,15.80
2022-12-04T10:21:24.861Z,13.60
2022-12-04T10:23:58.289Z,18.10
2022-12-04T10:26:28.249Z,15.40
2022-12-04T10:28:58.431Z,14.97
2022-12-04T10:31:25.940Z,16.37
2022-12-04T10:33:53.941Z,14.97
2022-12-04T10:36:22.645Z,15.53
2022-12-04T10:38:52.091Z,13.80
2022-12-04T10:41:23.883Z,19.83
2022-12-04T10:43:50.472Z,17.97
2022-12-04T10:46:21.662Z,12.47
2022-12-04T10:48:50.501Z,14.60
2022-12-04T10:51:18.442Z,13.80
2022-12-04T10:53:45.345Z,15.63
2022-12-04T10:56:13.197Z,14.37
2022-12-04T10:58:39.415Z,14.37
2022-12-04T11:01:07.013Z,15.77
2022-12-04T11:03:34.679Z,15.63
2022-12-04T11:06:02.372Z,15.23
2022-12-04T11:08:33.829Z,15.60
2022-12-04T11:11:01.974Z,15.60
2022-12-04T11:13:28.515Z,12.90
2022-12-04T11:15:56.169Z,14.43
2022-12-04T11:18:24.080Z,14.93
2022-12-04T11:20:53.562Z,12.23
2022-12-04T11:23:20.124Z,15.73
2022-12-04T11:25:47.548Z,15.80
2022-12-04T11:28:39.888Z,14.83
2022-12-04T11:31:04.073Z,15.93
2022-12-04T11:33:34.063Z,16.03
2022-12-04T11:36:03.697Z,14.73
2022-12-04T11:38:31.858Z,16.93
2022-12-04T11:40:58.584Z,15.00
2022-12-04T11:43:26.072Z,12.60
2022-12-04T11:45:56.267Z,13.70
2022-12-04T11:48:22.524Z,14.17
2022-12-04T11:50:53.954Z,13.90
2022-12-04T11:53:23.874Z,15.63
2022-12-04T11:56:12.487Z,14.10
2022-12-04T11:58:54.129Z,18.33
2022-12-04T12:01:28.901Z,11.90
2022-12-04T12:04:11.479Z,14.00
2022-12-04T12:06:39.320Z,20.53
2022-12-04T12:09:23.205Z,27.03
2022-12-04T12:11:53.441Z,20.63
2022-12-04T12:14:24.660Z,19.03
2022-12-04T12:16:57.823Z,17.17
2022-12-04T12:19:57.878Z,16.97
2022-12-04T12:22:36.287Z,16.70
2022-12-04T12:25:09.323Z,14.67
2022-12-04T12:27:49.697Z,15.67
2022-12-04T12:30:18.354Z,13.20
2022-12-04T12:32:57.470Z,16.27
2022-12-04T12:35:27.671Z,15.60
2022-12-04T12:37:57.277Z,17.80
2022-12-04T12:40:30.370Z,15.33
2022-12-04T12:42:59.772Z,16.03
2022-12-04T12:45:30.242Z,16.60
2022-12-04T12:47:59.028Z,20.47
2022-12-04T12:50:29.333Z,27.77
2022-12-04T12:52:57.995Z,15.97
2022-12-04T12:55:27.205Z,15.70
2022-12-04T12:58:00.391Z,17.70
2022-12-04T13:00:27.339Z,18.80
2022-12-04T13:03:00.023Z,18.23
2022-12-04T13:05:30.635Z,16.17
2022-12-04T13:08:02.899Z,19.20
2022-12-04T13:10:33.112Z,17.60
2022-12-04T13:13:02.055Z,17.27
2022-12-04T13:15:34.376Z,16.73
2022-12-04T13:18:00.966Z,17.60
2022-12-04T13:20:30.202Z,15.30
2022-12-04T13:23:13.217Z,16.10
2022-12-04T13:25:50.979Z,14.57
2022-12-04T13:28:25.459Z,18.63
2022-12-04T13:30:54.742Z,16.07
2022-12-04T13:33:36.306Z,16.63
2022-12-04T13:36:19.251Z,16.03
2022-12-04T13:38:58.099Z,13.67
2022-12-04T13:41:25.927Z,17.50
2022-12-04T13:43:52.874Z,15.90
2022-12-04T13:46:26.911Z,18.83
2022-12-04T13:48:53.165Z,21.47
2022-12-04T13:51:25.439Z,27.37
2022-12-04T13:54:17.985Z,20.53
2022-12-04T13:56:46.517Z,17.53
2022-12-04T13:59:21.567Z,17.50
2022-12-04T14:01:49.242Z,21.30
2022-12-04T14:04:23.586Z,18.03
2022-12-04T14:06:50.848Z,15.17
2022-12-04T14:09:22.218Z,16.63
2022-12-04T14:11:53.651Z,17.53
2022-12-04T14:14:25.519Z,16.50
2022-12-04T14:16:52.154Z,17.77
2022-12-04T14:19:31.278Z,19.93
2022-12-04T14:21:57.874Z,14.93
2022-12-04T14:24:34.535Z,14.17
2022-12-04T14:27:11.687Z,12.63
2022-12-04T14:29:45.538Z,15.27
2022-12-04T14:32:15.632Z,13.40
2022-12-04T14:34:42.157Z,15.73
2022-12-04T14:37:18.886Z,15.57
2022-12-04T14:39:46.650Z,15.43
2022-12-04T14:42:14.900Z,16.10
2022-12-04T14:44:41.819Z,18.23
2022-12-04T14:47:18.450Z,19.47
2022-12-04T14:49:49.792Z,19.90
2022-12-04T14:52:22.516Z,22.77
2022-12-04T14:54:52.953Z,21.43
2022-12-04T14:57:37.416Z,18.17
2022-12-04T15:00:05.433Z,24.87
2022-12-04T15:02:35.158Z,21.37
2022-12-04T15:05:02.319Z,21.27
2022-12-04T15:07:31.100Z,19.17
2022-12-04T15:10:17.231Z,25.50
2022-12-04T15:12:47.306Z,32.07
2022-12-04T15:15:21.126Z,36.63
2022-12-04T15:17:58.318Z,30.27
2022-12-04T15:20:24.965Z,31.10
2022-12-04T15:22:53.040Z,30.83
2022-12-04T15:25:20.808Z,33.13
2022-12-04T15:27:48.777Z,42.73
2022-12-04T15:30:16.987Z,33.53
2022-12-04T15:32:43.288Z,40.93
2022-12-04T15:35:15.499Z,30.20
2022-12-04T15:37:41.787Z,33.60
2022-12-04T15:40:11.052Z,39.80
2022-12-04T15:42:37.233Z,31.57
2022-12-04T15:45:22.824Z,32.03
2022-12-04T15:47:52.675Z,35.37
2022-12-04T15:50:22.725Z,40.80
2022-12-04T15:52:50.075Z,33.37
2022-12-04T15:55:17.733Z,36.13
2022-12-04T15:57:50.379Z,31.60
2022-12-04T16:00:24.331Z,31.67
2022-12-04T16:02:50.571Z,30.03
2022-12-04T16:05:34.145Z,32.80
2022-12-04T16:08:02.725Z,29.13
2022-12-04T16:10:31.553Z,29.43
2022-12-04T16:12:59.980Z,31.67
2022-12-04T16:15:34.021Z,30.50
2022-12-04T16:18:00.177Z,29.73
2022-12-04T16:20:26.339Z,31.60
2022-12-04T16:22:54.693Z,45.17
2022-12-04T16:25:21.022Z,33.03
2022-12-04T16:27:47.191Z,28.60
2022-12-04T16:30:13.857Z,26.30
2022-12-04T16:32:40.785Z,25.20
2022-12-04T16:35:08.768Z,30.80
2022-12-04T16:37:34.900Z,25.20
2022-12-04T16:40:05.558Z,27.33
2022-12-04T16:42:31.689Z,26.87
2022-12-04T16:44:58.459Z,31.10
2022-12-04T16:47:24.781Z,25.17
2022-12-04T16:49:52.514Z,25.63
2022-12-04T16:52:19.353Z,22.20
2022-12-04T16:54:45.595Z,22.33
2022-12-04T16:57:11.745Z,23.77
2022-12-04T16:59:37.967Z,26.37
2022-12-04T17:02:13.468Z,22.33
2022-12-04T17:04:39.681Z,23.87
2022-12-04T17:07:06.512Z,24.73
2022-12-04T17:09:32.623Z,26.53
2022-12-04T17:11:58.751Z,26.07
2022-12-04T17:14:24.891Z,26.63
2022-12-04T17:16:52.897Z,25.87
2022-12-04T17:19:19.079Z,26.83
2022-12-04T17:21:45.443Z,27.37
2022-12-04T17:24:12.228Z,29.63
2022-12-04T17:26:38.362Z,29.23
2022-12-04T17:29:04.556Z,30.33
2022-12-04T17:31:30.779Z,27.07
2022-12-04T17:33:57.208Z,28.03
2022-12-04T17:36:25.331Z,27.07
2022-12-04T17:38:53.062Z,33.17
2022-12-04T17:41:19.823Z,30.00
2022-12-04T17:43:46.180Z,29.70
2022-12-04T17:46:14.054Z,28.23
2022-12-04T17:48:40.241Z,30.13
2022-12-04T17:51:08.533Z,28.80
2022-12-04T17:53:35.192Z,28.47
2022-12-04T17:56:03.609Z,30.67
2022-12-04T17:58:30.916Z,31.93
2022-12-04T18:01:01.092Z,28.83
2022-12-04T18:03:27.333Z,32.50
2022-12-04T18:05:53.539Z,35.03
2022-12-04T18:08:20.020Z,31.17
2022-12-04T18:10:46.223Z,29.50
2022-12-04T18:13:12.386Z,27.40
2022-12-04T18:15:40.143Z,28.17
2022-12-04T18:18:06.392Z,23.43
2022-12-04T18:20:32.579Z,25.63
2022-12-04T18:22:58.722Z,26.60
2022-12-04T18:25:24.911Z,32.60
2022-12-04T18:27:51.194Z,27.97
2022-12-04T18:30:17.465Z,27.67
2022-12-04T18:32:46.362Z,30.57
2022-12-04T18:35:12.619Z,31.13
2022-12-04T18:37:38.751Z,24.20
2022-12-04T18:40:07.261Z,26.63
2022-12-04T18:42:33.705Z,26.10
2022-12-04T18:44:59.890Z,24.43
2022-12-04T18:47:26.283Z,29.17
2022-12-04T18:49:53.071Z,26.17
2022-12-04T18:52:19.324Z,27.97
2022-12-04T18:54:45.600Z,25.93
2022-12-04T18:57:11.782Z,23.13
2022-12-04T18:59:38.358Z,25.03
2022-12-04T19:02:04.642Z,25.27
2022-12-04T19:04:31.985Z,25.90
2022-12-04T19:06:59.056Z,33.13
2022-12-04T19:09:54.424Z,29.83
2022-12-04T19:12:13.726Z,36.20
2022-12-04T19:14:40.104Z,29.67
2022-12-04T19:17:06.464Z,27.00
2022-12-04T19:19:32.811Z,29.97
2022-12-04T19:22:00.320Z,26.73
2022-12-04T19:24:26.530Z,24.90
2022-12-04T19:26:53.259Z,32.00
2022-12-04T19:29:19.418Z,27.93
2022-12-04T19:31:45.824Z,28.13
2022-12-04T19:34:12.099Z,25.80
2022-12-04T19:36:39.530Z,32.57
2022-12-04T19:39:06.596Z,28.83
2022-12-04T19:41:34.459Z,28.77
2022-12-04T19:44:01.046Z,30.57
2022-12-04T19:46:30.246Z,31.67
2022-12-04T19:48:59.683Z,33.53
2022-12-04T19:51:25.924Z,27.40
2022-12-04T19:53:53.508Z,32.67
2022-12-04T19:56:23.518Z,38.40
2022-12-04T19:58:49.991Z,32.47
2022-12-04T20:01:18.649Z,33.27
2022-12-04T20:03:45.416Z,34.80
2022-12-04T20:06:13.322Z,33.87
2022-12-04T20:08:39.816Z,31.47
2022-12-04T20:11:08.593Z,34.47
2022-12-04T20:13:37.170Z,34.80
2022-12-04T20:16:04.668Z,32.17
2022-12-04T20:18:31.653Z,35.83
2022-12-04T20:20:59.190Z,33.33
2022-12-04T20:23:25.660Z,32.53
2022-12-04T20:25:52.282Z,35.57
2022-12-04T20:28:18.823Z,35.13
2022-12-04T20:30:46.168Z,31.23
2022-12-04T20:33:13.812Z,33.40
2022-12-04T20:35:40.306Z,36.87
2022-12-04T20:38:06.810Z,38.97
2022-12-04T20:40:33.703Z,37.47
2022-12-04T20:43:00.611Z,34.13
2022-12-04T20:45:27.011Z,35.83
2022-12-04T20:47:55.152Z,36.53
2022-12-04T20:50:21.582Z,37.40
2022-12-04T20:52:47.740Z,39.70
2022-12-04T20:55:14.007Z,37.50
2022-12-04T20:57:40.268Z,42.43
2022-12-04T21:00:07.719Z,36.80
2022-12-04T21:02:34.048Z,45.57
2022-12-04T21:05:00.924Z,41.43
2022-12-04T21:07:27.016Z,44.03
2022-12-04T21:09:53.222Z,39.57
2022-12-04T21:12:43.005Z,41.40
2022-12-04T21:15:28.515Z,39.53
2022-12-04T21:17:54.860Z,43.80
2022-12-04T21:20:21.621Z,41.03
2022-12-04T21:22:47.792Z,47.27
2022-12-04T21:25:14.019Z,44.20
2022-12-04T21:27:40.177Z,43.67
2022-12-04T21:30:07.663Z,44.53
2022-12-04T21:32:33.914Z,45.00
2022-12-04T21:35:00.999Z,50.77
2022-12-04T21:37:27.899Z,43.47
2022-12-04T21:39:54.504Z,48.27
2022-12-04T21:42:29.658Z,43.30
2022-12-04T21:44:55.804Z,45.43
2022-12-04T21:47:22.187Z,45.07
2022-12-04T21:49:48.406Z,47.30
2022-12-04T21:52:15.075Z,53.17
2022-12-04T21:54:41.895Z,43.67
2022-12-04T21:57:08.047Z,46.63
2022-12-04T21:59:34.263Z,45.00
2022-12-04T22:02:00.585Z,46.73
2022-12-04T22:04:26.775Z,47.03
2022-12-04T22:06:53.039Z,48.73
2022-12-04T22:09:19.333Z,47.37
2022-12-04T22:11:46.166Z,41.53
2022-12-04T22:14:12.806Z,45.50
2022-12-04T22:16:42.477Z,44.50
2022-12-04T22:19:09.730Z,41.77
2022-12-04T22:21:35.901Z,39.63
2022-12-04T22:24:03.187Z,38.93
2022-12-04T22:26:30.073Z,40.03
2022-12-04T22:28:57.291Z,38.83
2022-12-04T22:31:25.177Z,40.70
2022-12-04T22:33:53.069Z,37.10
2022-12-04T22:36:21.285Z,39.27
2022-12-04T22:39:08.132Z,37.17
2022-12-04T22:41:34.388Z,35.03
2022-12-04T22:44:01.199Z,37.83
2022-12-04T22:46:27.439Z,33.70
2022-12-04T22:48:53.727Z,37.17
2022-12-04T22:51:21.066Z,34.73
2022-12-04T22:53:48.875Z,36.83
2022-12-04T22:56:17.043Z,33.27
2022-12-04T22:58:43.745Z,33.30
2022-12-04T23:01:12.097Z,37.67
2022-12-04T23:03:38.441Z,32.87
2022-12-04T23:06:05.123Z,36.77
2022-12-04T23:08:32.049Z,37.67
2022-12-04T23:11:02.827Z,40.60
2022-12-04T23:13:29.027Z,41.80
2022-12-04T23:15:55.366Z,42.07
2022-12-04T23:18:22.482Z,35.13
2022-12-04T23:20:48.656Z,34.50
2022-12-04T23:23:14.826Z,38.80
2022-12-04T23:25:40.951Z,44.87
2022-12-04T23:28:07.429Z,37.77
2022-12-04T23:30:36.603Z,38.20
2022-12-04T23:33:03.125Z,39.33
2022-12-04T23:35:30.224Z,36.83
2022-12-04T23:37:56.465Z,34.73
2022-12-04T23:40:22.627Z,40.33
2022-12-04T23:42:48.788Z,41.53
2022-12-04T23:45:15.079Z,40.10
2022-12-04T23:47:41.487Z,35.70
2022-12-04T23:50:08.012Z,40.53
2022-12-04T23:52:34.890Z,35.37
2022-12-04T23:55:01.100Z,43.53
2022-12-04T23:57:28.441Z,42.70
2022-12-04T23:59:54.889Z,36.53
